Airfield :
LOGIN :

Register | Disclaimer

   EN    FR    IT 

 










Legend :    VFR   Marginal VFR   IFR   Intensive IFR   Very Intensive IFR
Visi :
Ceiling :
>= 8 km
>= 3000ft
5 to 8 km
1000 to 3000 ft
1500m to 5 km
500 to 1000 ft
800 to 1500m
200 to 500 ft
< 800m
< 200 ft
Symbols :   Thunderstorms  Fog  Heavy snow  Heavy precipitations  Wind > 20 kt
SIGMETs :     Misc.  Thunderstorms  Icing  Turbulence  Mountain Waves  Volcanic Ashes







- Airport Elevation : 135 ft
- IATA code : EDI
- Download approach charts


EGPH - Edinburgh

CURRENT METAR :
  • 221950Z 07007KT 3500 RA BKN001 14/14 Q1002

EXPIRED METARs :
  • 221920Z 05006KT 3500 RA OVC001 14/14 Q1001
  • 221850Z 06006KT 030V090 4000 RA OVC002 14/14 Q1002
  • 221820Z 08005KT 4500 -RA OVC003 14/14 Q1001
  • 221750Z 07007KT 5000 -RADZ BKN003 14/14 Q1001
  • 221720Z 06008KT 5000 -RADZ BKN002 14/14 Q1001

TAF AMD TAF EGPH
Valid from the 22 at 19:00 until the 23 at 18:00 UTC


221920Z 2219/2318 VRB03KT 9999 BKN003
TEMPO 2219/2302 3000 RADZ BKN001
PROB30
TEMPO 2219/2224 1200 +RADZ
PROB30
TEMPO 2303/2307 3000 BR
BECMG 2304/2307 SCT015
BECMG 2309/2312 20010KT
PROB30
TEMPO 2310/2312 7000 SHRA BKN014
ATIS : +44 131 339 2823
No reported NOTAMs for that airfield.



MET'MAP, your aeronautical weather chart ! - Copyright ORBIFLY December 2007 - Disclaimer

ORBIFLY MET'MAP TEAM :

Programming & Development : Alexandra Zaïnal
Concept & Development : Baudouin d'Aumeries
Co-Development & Prog : Marc-Olivier Méhu
Technical & hardware support : Manuel Goepfert

Contact : metmap@orbifly.com




SOURCES & CREDITS :

   NOAA